Time;durP1;ratioP1;P1;durP2;ratioP2;P2;SDS_P1;SDS_P2;PMS_P1;PMS_P2;Temp;Humidity;BMP_temperature;BMP_pressure;BME280_temperature;BME280_humidity;BME280_pressure;Samples;Min_cycle;Max_cycle;Signal;HPM_P1;HPM_P2
2022/03/16 00:00:23;;;;;;;3.17;2.53;;;20.20;57.20;;;;;;4953567;28;86420;-73
2022/03/16 00:02:49;;;;;;;2.28;2.00;;;20.20;57.10;;;;;;4953795;28;85950;-75
2022/03/16 00:05:15;;;;;;;3.13;2.20;;;20.10;57.10;;;;;;4969105;28;86920;-72
2022/03/16 00:07:42;;;;;;;4.57;2.20;;;20.20;57.10;;;;;;4954034;28;88211;-72
2022/03/16 00:10:08;;;;;;;2.88;2.05;;;20.10;57.00;;;;;;4953868;28;86091;-72
2022/03/16 00:12:35;;;;;;;3.15;2.15;;;20.10;57.00;;;;;;4954536;28;86099;-72
2022/03/16 00:15:01;;;;;;;2.60;2.10;;;20.20;57.00;;;;;;4953737;28;86220;-72
2022/03/16 00:17:26;;;;;;;3.95;2.40;;;20.10;57.00;;;;;;4953785;28;87395;-72
2022/03/16 00:19:52;;;;;;;2.85;2.05;;;20.10;57.00;;;;;;4952087;28;88886;-72
2022/03/16 00:22:18;;;;;;;3.42;2.08;;;20.10;57.10;;;;;;4952708;28;85810;-72
2022/03/16 00:24:43;;;;;;;2.72;2.15;;;20.10;57.10;;;;;;4953793;28;86652;-72
2022/03/16 00:27:09;;;;;;;3.08;1.90;;;20.10;57.00;;;;;;4953060;28;88342;-72
2022/03/16 00:29:34;;;;;;;3.15;2.22;;;20.10;57.10;;;;;;4952447;28;87379;-72
2022/03/16 00:32:00;;;;;;;2.63;2.15;;;20.10;57.10;;;;;;4951330;28;86369;-76
2022/03/16 00:34:26;;;;;;;2.85;2.10;;;20.10;57.00;;;;;;4952510;28;86795;-73
2022/03/16 00:36:52;;;;;;;3.08;2.40;;;20.10;57.20;;;;;;4951831;28;86817;-73
2022/03/16 00:39:18;;;;;;;3.05;2.50;;;20.10;57.00;;;;;;4952160;28;86343;-72
2022/03/16 00:41:43;;;;;;;2.85;2.28;;;20.10;56.90;;;;;;4953436;28;86291;-72
2022/03/16 00:44:09;;;;;;;2.97;2.00;;;20.10;56.80;;;;;;4953001;28;86277;-72
2022/03/16 00:46:36;;;;;;;2.50;2.22;;;20.10;56.90;;;;;;4953510;28;88275;-72
2022/03/16 00:49:03;;;;;;;2.50;2.00;;;20.00;56.80;;;;;;4952943;28;85990;-72
2022/03/16 00:51:29;;;;;;;2.67;2.22;;;20.10;56.90;;;;;;4951760;28;86473;-72
2022/03/16 00:53:54;;;;;;;2.17;1.92;;;20.10;57.00;;;;;;4952645;28;86060;-72
2022/03/16 00:56:20;;;;;;;3.40;2.40;;;20.00;56.80;;;;;;4952060;28;87161;-72
2022/03/16 00:58:46;;;;;;;2.72;2.10;;;20.10;56.80;;;;;;4952816;28;86626;-72
2022/03/16 01:01:11;;;;;;;2.92;2.35;;;20.00;56.70;;;;;;4953304;28;85706;-73
2022/03/16 01:03:40;;;;;;;3.15;2.28;;;20.00;56.60;;;;;;4952569;28;86369;-73
2022/03/16 01:06:12;;;;;;;2.47;2.25;;;20.00;56.60;;;;;;4952402;28;86346;-73
2022/03/16 01:08:39;;;;;;;2.40;2.20;;;20.00;56.60;;;;;;4952306;28;86432;-72
2022/03/16 01:11:04;;;;;;;2.08;1.88;;;20.00;56.50;;;;;;4951634;28;86132;-72
2022/03/16 01:13:32;;;;;;;3.17;2.25;;;20.00;56.60;;;;;;4952508;28;86524;-72
2022/03/16 01:16:01;;;;;;;2.38;1.88;;;20.00;56.40;;;;;;4951827;28;86123;-72
2022/03/16 01:18:26;;;;;;;4.30;2.95;;;20.00;56.50;;;;;;4940276;28;87638;-72
2022/03/16 01:20:52;;;;;;;2.80;2.13;;;20.00;57.00;;;;;;4953150;28;86440;-72
2022/03/16 01:23:18;;;;;;;2.75;2.17;;;20.00;56.30;;;;;;4953129;28;85670;-72
2022/03/16 01:25:46;;;;;;;3.10;2.10;;;19.90;56.30;;;;;;4952449;28;86393;-72
2022/03/16 01:28:11;;;;;;;2.78;1.92;;;19.90;56.20;;;;;;4943920;28;88430;-72
2022/03/16 01:30:37;;;;;;;3.53;2.17;;;19.90;56.30;;;;;;4952478;28;86562;-72
2022/03/16 01:33:03;;;;;;;2.42;2.22;;;19.90;56.20;;;;;;4951366;28;85883;-72
2022/03/16 01:35:28;;;;;;;2.55;2.20;;;19.90;56.20;;;;;;4952478;28;86766;-72
2022/03/16 01:37:54;;;;;;;2.42;2.10;;;19.90;56.10;;;;;;4951680;28;86550;-73
2022/03/16 01:40:20;;;;;;;2.55;2.30;;;19.90;56.00;;;;;;4951851;28;85689;-72
2022/03/16 01:42:45;;;;;;;2.40;2.08;;;19.90;56.00;;;;;;4951254;28;85570;-72
2022/03/16 01:45:11;;;;;;;2.60;2.10;;;19.90;56.20;;;;;;4952309;28;86321;-72
2022/03/16 01:47:37;;;;;;;2.47;2.13;;;19.90;56.20;;;;;;4951898;28;86134;-72
2022/03/16 01:50:06;;;;;;;2.75;2.15;;;19.90;56.20;;;;;;4951709;28;86887;-75
2022/03/16 01:52:32;;;;;;;3.05;2.13;;;19.90;56.10;;;;;;4951748;28;86513;-72
2022/03/16 01:55:00;;;;;;;3.13;2.20;;;19.90;56.20;;;;;;4952347;28;86717;-72
2022/03/16 01:57:26;;;;;;;2.73;2.33;;;19.90;56.20;;;;;;4951741;28;86853;-72
2022/03/16 01:59:52;;;;;;;2.70;2.20;;;19.90;56.10;;;;;;4951777;28;86689;-72
2022/03/16 02:02:17;;;;;;;2.90;2.58;;;19.90;56.10;;;;;;4951858;28;86472;-72
2022/03/16 02:04:43;;;;;;;1.85;1.73;;;19.90;56.00;;;;;;4951344;28;86876;-71
2022/03/16 02:07:09;;;;;;;2.78;2.00;;;19.90;56.10;;;;;;4952045;28;87990;-72
2022/03/16 02:09:36;;;;;;;2.60;2.20;;;19.90;56.10;;;;;;4952488;28;86459;-72
2022/03/16 02:12:02;;;;;;;2.17;1.98;;;19.80;56.10;;;;;;4952688;28;86289;-72
2022/03/16 02:14:29;;;;;;;2.97;2.22;;;19.80;56.00;;;;;;4951997;28;87259;-72
2022/03/16 02:16:56;;;;;;;2.47;2.28;;;19.90;56.00;;;;;;4950673;28;86518;-71
2022/03/16 02:19:23;;;;;;;2.45;2.10;;;19.80;56.00;;;;;;4952030;28;86351;-72
2022/03/16 02:21:54;;;;;;;2.38;2.17;;;19.80;55.90;;;;;;4951829;28;86642;-72
2022/03/16 02:24:21;;;;;;;2.83;2.05;;;19.80;55.70;;;;;;4951279;28;86478;-72
2022/03/16 02:26:46;;;;;;;2.50;2.00;;;19.80;55.80;;;;;;4951287;28;87211;-72
2022/03/16 02:29:12;;;;;;;3.60;2.13;;;19.80;55.80;;;;;;4950481;28;86302;-72
2022/03/16 02:31:37;;;;;;;2.55;1.90;;;19.80;55.90;;;;;;4950810;28;86745;-72
2022/03/16 02:34:03;;;;;;;2.70;1.95;;;19.80;55.90;;;;;;4951463;28;87245;-72
2022/03/16 02:36:29;;;;;;;2.33;2.00;;;19.80;55.70;;;;;;4951215;28;86765;-72
2022/03/16 02:38:54;;;;;;;1.90;1.80;;;19.80;55.70;;;;;;4951975;28;86088;-74
2022/03/16 02:41:20;;;;;;;2.30;2.10;;;19.80;55.80;;;;;;4951782;28;85853;-72
2022/03/16 02:43:45;;;;;;;2.42;1.92;;;19.80;55.70;;;;;;4966788;28;90033;-72
2022/03/16 02:46:11;;;;;;;2.75;2.13;;;19.80;55.70;;;;;;4949827;28;89017;-72
2022/03/16 02:48:37;;;;;;;3.40;2.17;;;19.80;55.70;;;;;;4952100;28;86300;-72
2022/03/16 02:51:05;;;;;;;2.53;2.20;;;19.70;55.60;;;;;;4952059;28;86256;-72
2022/03/16 02:53:30;;;;;;;2.22;2.00;;;19.70;55.60;;;;;;4951698;28;86558;-72
2022/03/16 02:55:56;;;;;;;2.47;1.92;;;19.80;55.60;;;;;;4954124;28;86864;-72
2022/03/16 02:58:22;;;;;;;2.58;2.20;;;19.70;55.40;;;;;;4954749;28;85748;-73
2022/03/16 03:00:48;;;;;;;2.40;2.20;;;19.70;55.50;;;;;;4955144;28;86777;-73
2022/03/16 03:03:13;;;;;;;2.72;2.10;;;19.70;55.50;;;;;;4955167;28;86497;-72
2022/03/16 03:05:39;;;;;;;2.58;2.33;;;19.70;55.70;;;;;;4954001;28;86825;-73
2022/03/16 03:08:05;;;;;;;2.20;2.00;;;19.70;55.40;;;;;;4954957;28;86792;-72
2022/03/16 03:10:30;;;;;;;2.90;2.47;;;19.70;55.50;;;;;;4954977;28;86651;-72
2022/03/16 03:12:56;;;;;;;2.20;2.00;;;19.70;55.40;;;;;;4954654;28;85725;-72
2022/03/16 03:15:22;;;;;;;2.47;1.95;;;19.70;55.40;;;;;;4954353;28;86125;-72
2022/03/16 03:17:50;;;;;;;2.42;2.22;;;19.70;55.40;;;;;;4954304;28;86030;-72
2022/03/16 03:20:16;;;;;;;2.57;2.23;;;19.70;55.50;;;;;;4953574;28;86465;-72
2022/03/16 03:22:41;;;;;;;2.50;2.00;;;19.70;55.40;;;;;;4954380;28;87146;-72
2022/03/16 03:25:14;;;;;;;2.67;2.08;;;19.70;55.40;;;;;;4953927;28;86619;-71
2022/03/16 03:27:40;;;;;;;2.92;2.30;;;19.70;55.40;;;;;;4953799;28;86155;-72
2022/03/16 03:30:07;;;;;;;2.35;2.15;;;19.60;55.30;;;;;;4952934;28;86606;-72
2022/03/16 03:32:33;;;;;;;2.17;1.98;;;19.60;55.30;;;;;;4952933;28;86215;-72
2022/03/16 03:34:59;;;;;;;2.00;1.80;;;19.70;55.40;;;;;;4954484;28;86479;-74
2022/03/16 03:37:31;;;;;;;2.85;2.50;;;19.60;55.20;;;;;;4954307;28;86208;-72
2022/03/16 03:39:57;;;;;;;2.85;2.25;;;19.60;55.20;;;;;;4955130;28;85644;-74
2022/03/16 03:42:23;;;;;;;2.50;2.30;;;19.60;55.20;;;;;;4954693;28;86461;-74
2022/03/16 03:44:49;;;;;;;2.75;2.42;;;19.60;55.30;;;;;;4952840;28;88078;-72
2022/03/16 03:47:15;;;;;;;3.35;2.42;;;19.60;55.20;;;;;;4952604;28;87307;-72
2022/03/16 03:49:42;;;;;;;2.20;2.00;;;19.60;55.30;;;;;;4951912;28;88048;-72
2022/03/16 03:52:10;;;;;;;2.33;1.98;;;19.60;55.20;;;;;;4950846;28;87831;-72
2022/03/16 03:54:36;;;;;;;4.40;2.65;;;19.60;55.30;;;;;;4950163;28;91771;-72
2022/03/16 03:57:02;;;;;;;2.60;2.20;;;19.60;55.30;;;;;;4953040;28;88467;-72
2022/03/16 03:59:28;;;;;;;2.55;2.28;;;19.60;55.20;;;;;;4951583;28;87765;-75
2022/03/16 04:01:54;;;;;;;2.10;1.90;;;19.60;55.20;;;;;;4950571;28;87690;-73
2022/03/16 04:04:19;;;;;;;3.00;2.40;;;19.50;55.20;;;;;;4951061;28;87556;-75
2022/03/16 04:06:45;;;;;;;3.40;2.20;;;19.50;55.80;;;;;;4949803;28;88012;-75
2022/03/16 04:09:11;;;;;;;2.30;2.10;;;19.60;55.30;;;;;;4951989;28;88007;-72
2022/03/16 04:11:37;;;;;;;2.20;2.00;;;19.60;55.30;;;;;;4951189;28;86568;-72
2022/03/16 04:14:03;;;;;;;3.20;2.13;;;19.60;55.20;;;;;;4951438;28;88297;-72
2022/03/16 04:16:29;;;;;;;2.33;2.10;;;19.50;55.10;;;;;;4951709;28;87899;-72
2022/03/16 04:18:55;;;;;;;2.25;2.03;;;19.50;55.20;;;;;;4951204;28;88426;-72
2022/03/16 04:21:21;;;;;;;2.63;2.15;;;19.50;55.20;;;;;;4949395;28;90082;-72
2022/03/16 04:23:47;;;;;;;2.40;2.20;;;19.50;55.20;;;;;;4951208;28;88032;-72
2022/03/16 04:26:12;;;;;;;4.47;2.35;;;19.50;55.10;;;;;;4951957;28;87405;-72
2022/03/16 04:28:38;;;;;;;2.80;1.98;;;19.50;55.00;;;;;;4952301;28;87812;-72
2022/03/16 04:31:04;;;;;;;2.85;2.17;;;19.50;55.10;;;;;;4951285;28;86987;-72
2022/03/16 04:33:29;;;;;;;2.30;2.10;;;19.50;55.10;;;;;;4952058;28;87394;-72
2022/03/16 04:35:55;;;;;;;2.95;2.30;;;19.50;55.20;;;;;;4950880;28;92240;-72
2022/03/16 04:38:22;;;;;;;2.33;2.13;;;19.50;55.10;;;;;;4952081;28;86929;-72
2022/03/16 04:40:47;;;;;;;3.08;2.45;;;19.50;54.90;;;;;;4951080;28;88256;-72
2022/03/16 04:43:13;;;;;;;2.17;1.98;;;19.50;55.10;;;;;;4949988;28;89353;-72
2022/03/16 04:45:40;;;;;;;2.50;2.30;;;19.40;54.90;;;;;;4951327;28;88931;-72
2022/03/16 04:48:11;;;;;;;2.90;2.30;;;19.40;55.10;;;;;;4952012;28;87000;-72
2022/03/16 04:50:38;;;;;;;2.47;2.28;;;19.50;55.00;;;;;;4951868;28;87816;-72
2022/03/16 04:53:04;;;;;;;2.58;2.38;;;19.50;54.90;;;;;;4951616;28;89063;-73
2022/03/16 04:55:30;;;;;;;3.17;2.20;;;19.40;54.90;;;;;;4951693;28;88695;-72
2022/03/16 04:57:56;;;;;;;2.50;2.30;;;19.40;54.90;;;;;;4952393;28;87392;-72
2022/03/16 05:00:21;;;;;;;2.75;2.28;;;19.40;54.90;;;;;;4952347;28;86649;-75
2022/03/16 05:02:47;;;;;;;2.47;2.20;;;19.50;54.90;;;;;;4951816;28;87731;-74
2022/03/16 05:05:13;;;;;;;2.60;2.40;;;19.40;54.90;;;;;;4951079;28;87995;-72
2022/03/16 05:07:40;;;;;;;3.10;2.40;;;19.40;54.80;;;;;;4950769;28;88830;-72
2022/03/16 05:10:07;;;;;;;2.53;2.13;;;19.40;54.90;;;;;;4951234;28;87769;-74
2022/03/16 05:12:37;;;;;;;2.75;2.45;;;19.40;54.80;;;;;;4950829;28;88677;-72
2022/03/16 05:15:05;;;;;;;2.25;2.05;;;19.40;55.00;;;;;;4965343;28;90191;-72
2022/03/16 05:17:31;;;;;;;2.63;2.10;;;19.40;54.70;;;;;;4951045;28;86987;-75
2022/03/16 05:19:56;;;;;;;3.85;2.22;;;19.40;54.70;;;;;;4950821;28;88567;-73
2022/03/16 05:22:22;;;;;;;6.10;3.28;;;19.40;54.70;;;;;;4963364;28;91184;-73
2022/03/16 05:24:47;;;;;;;2.67;2.40;;;19.40;53.40;;;;;;4950323;28;87812;-73
2022/03/16 05:27:13;;;;;;;4.57;2.63;;;19.40;54.60;;;;;;4950139;28;88181;-74
2022/03/16 05:29:39;;;;;;;4.10;2.50;;;19.40;55.00;;;;;;4947971;28;88352;-73
2022/03/16 05:32:05;;;;;;;2.47;2.28;;;19.40;55.50;;;;;;4949554;28;89047;-73
2022/03/16 05:34:30;;;;;;;3.28;2.70;;;19.40;54.30;;;;;;4950173;28;88466;-73
2022/03/16 05:36:56;;;;;;;3.30;3.00;;;19.40;55.20;;;;;;4950590;28;87712;-73
2022/03/16 05:39:22;;;;;;;4.63;3.10;;;19.40;55.50;;;;;;4951028;28;87808;-73
2022/03/16 05:41:47;;;;;;;3.15;2.85;;;19.40;55.30;;;;;;4950966;28;89171;-73
2022/03/16 05:44:13;;;;;;;3.47;3.00;;;19.40;55.60;;;;;;4950826;28;87749;-74
2022/03/16 05:46:39;;;;;;;2.70;2.50;;;19.40;55.70;;;;;;4950767;28;87982;-74
2022/03/16 05:49:04;;;;;;;5.18;3.25;;;19.40;55.60;;;;;;4949066;28;89099;-74
2022/03/16 05:51:30;;;;;;;5.28;2.63;;;19.40;55.40;;;;;;4950841;28;87537;-74
2022/03/16 05:53:55;;;;;;;3.22;2.92;;;19.40;55.60;;;;;;4950918;28;87753;-73
2022/03/16 05:56:21;;;;;;;2.85;2.60;;;19.40;55.80;;;;;;4949205;28;89127;-75
2022/03/16 05:58:47;;;;;;;3.33;2.63;;;19.40;55.60;;;;;;4950172;28;87924;-74
2022/03/16 06:01:12;;;;;;;3.55;3.25;;;19.30;55.40;;;;;;4949025;28;89110;-74
2022/03/16 06:03:38;;;;;;;5.32;3.38;;;19.40;55.60;;;;;;4948747;28;87740;-74
2022/03/16 06:06:05;;;;;;;5.25;3.15;;;19.40;55.40;;;;;;4948678;28;87780;-74
2022/03/16 06:08:30;;;;;;;4.90;2.85;;;19.40;55.40;;;;;;4948688;28;87950;-74
2022/03/16 06:10:56;;;;;;;2.97;2.67;;;19.40;55.40;;;;;;4949391;28;87969;-75
2022/03/16 06:13:23;;;;;;;3.58;2.88;;;19.30;55.90;;;;;;4955258;28;91251;-76
2022/03/16 06:15:49;;;;;;;2.95;2.75;;;19.30;55.20;;;;;;4948946;28;87954;-75
2022/03/16 06:18:14;;;;;;;3.00;2.70;;;19.30;55.20;;;;;;4949083;28;87635;-75
2022/03/16 06:20:40;;;;;;;4.10;2.95;;;19.30;55.00;;;;;;4948686;28;89100;-76
2022/03/16 06:23:06;;;;;;;2.70;2.50;;;19.30;55.10;;;;;;4949476;28;88690;-74
2022/03/16 06:25:33;;;;;;;4.45;2.85;;;19.30;55.10;;;;;;4949091;28;88247;-75
2022/03/16 06:27:59;;;;;;;2.90;2.35;;;19.30;54.90;;;;;;4949091;28;87444;-74
2022/03/16 06:30:25;;;;;;;3.42;2.60;;;19.30;55.00;;;;;;4949231;28;87616;-75
2022/03/16 06:32:51;;;;;;;3.65;2.60;;;19.30;55.10;;;;;;4949194;28;88307;-75
2022/03/16 06:35:16;;;;;;;3.33;3.03;;;19.30;55.00;;;;;;4948085;28;87724;-75
2022/03/16 06:37:43;;;;;;;2.85;2.53;;;19.30;54.80;;;;;;4949013;28;86965;-74
2022/03/16 06:40:10;;;;;;;2.70;2.50;;;19.30;54.70;;;;;;4949472;28;87936;-74
2022/03/16 06:42:45;;;;;;;3.65;2.40;;;19.30;54.70;;;;;;4949728;28;87932;-74
2022/03/16 06:45:11;;;;;;;2.83;2.63;;;19.30;54.70;;;;;;4949383;28;88860;-73
2022/03/16 06:47:38;;;;;;;3.40;2.85;;;19.30;54.50;;;;;;4950296;28;87425;-75
2022/03/16 06:50:05;;;;;;;3.35;3.00;;;19.30;54.50;;;;;;4948773;28;88027;-70
2022/03/16 06:52:31;;;;;;;2.92;2.72;;;19.30;54.30;;;;;;4963061;28;90095;-72
2022/03/16 06:54:56;;;;;;;2.70;2.50;;;19.30;54.30;;;;;;4949791;28;88198;-72
2022/03/16 06:57:22;;;;;;;4.43;2.75;;;19.40;54.20;;;;;;4948938;28;86896;-72
2022/03/16 06:59:48;;;;;;;30.63;7.07;;;19.30;54.50;;;;;;4954409;28;87322;-71
2022/03/16 07:02:13;;;;;;;25.52;6.45;;;19.40;53.80;;;;;;4949742;28;87358;-72
2022/03/16 07:04:39;;;;;;;41.92;8.57;;;19.40;53.90;;;;;;4949682;28;87489;-72
2022/03/16 07:07:04;;;;;;;44.08;9.13;;;19.40;54.00;;;;;;4948034;28;88074;-72
2022/03/16 07:09:32;;;;;;;26.13;7.22;;;19.40;54.20;;;;;;4947087;28;89914;-72
2022/03/16 07:11:58;;;;;;;25.30;6.88;;;19.40;54.20;;;;;;4947071;28;88845;-71
2022/03/16 07:14:33;;;;;;;29.83;7.00;;;19.50;54.10;;;;;;4948287;28;88040;-71
2022/03/16 07:17:00;;;;;;;33.33;8.13;;;19.50;54.20;;;;;;4947932;28;88184;-71
2022/03/16 07:19:26;;;;;;;30.67;7.90;;;19.60;53.40;;;;;;4947843;28;88230;-71
2022/03/16 07:21:51;;;;;;;30.08;7.45;;;19.60;53.30;;;;;;4949076;28;87619;-71
2022/03/16 07:24:19;;;;;;;30.98;8.07;;;19.60;53.60;;;;;;4948673;28;87421;-71
2022/03/16 07:26:45;;;;;;;24.85;7.88;;;19.70;54.40;;;;;;4943048;28;88517;-72
2022/03/16 07:29:11;;;;;;;30.40;7.28;;;19.70;54.60;;;;;;4948282;28;88322;-72
2022/03/16 07:31:36;;;;;;;27.55;7.60;;;19.70;55.00;;;;;;4948147;28;88530;-73
2022/03/16 07:34:02;;;;;;;32.17;9.48;;;19.70;55.20;;;;;;4947718;28;89180;-72
2022/03/16 07:36:28;;;;;;;22.35;8.32;;;19.70;55.80;;;;;;4948005;28;87936;-72
2022/03/16 07:38:54;;;;;;;27.40;8.50;;;19.70;57.10;;;;;;4946311;28;90082;-71
2022/03/16 07:41:19;;;;;;;24.27;7.47;;;19.70;57.20;;;;;;4948301;28;87792;-72
2022/03/16 07:43:45;;;;;;;23.27;7.15;;;19.70;56.00;;;;;;4946454;28;87976;-71
2022/03/16 07:46:11;;;;;;;21.00;6.97;;;19.70;54.80;;;;;;4959742;28;87758;-71
2022/03/16 07:48:38;;;;;;;16.83;7.18;;;19.70;55.00;;;;;;4952308;28;87368;-71
2022/03/16 07:51:04;;;;;;;18.30;6.75;;;19.70;55.10;;;;;;4952817;28;87228;-71
2022/03/16 07:53:30;;;;;;;27.02;6.78;;;19.70;54.90;;;;;;4949358;28;87931;-71
2022/03/16 07:55:57;;;;;;;20.67;6.75;;;19.80;55.40;;;;;;4951927;28;88973;-71
2022/03/16 07:58:23;;;;;;;22.50;6.55;;;19.80;55.00;;;;;;4950837;28;89811;-71
2022/03/16 08:00:49;;;;;;;17.98;6.60;;;19.80;54.80;;;;;;4952555;28;88670;-71
2022/03/16 08:03:15;;;;;;;17.08;6.18;;;19.80;55.20;;;;;;4951220;28;88159;-71
2022/03/16 08:05:40;;;;;;;20.52;6.07;;;19.80;55.10;;;;;;4949442;28;88232;-71
2022/03/16 08:08:06;;;;;;;18.35;6.70;;;19.80;55.70;;;;;;4951858;28;87662;-71
2022/03/16 08:10:32;;;;;;;17.70;5.85;;;19.80;55.70;;;;;;4951992;28;87537;-71
2022/03/16 08:12:58;;;;;;;20.17;6.20;;;19.80;55.50;;;;;;4967070;28;87916;-71
2022/03/16 08:15:24;;;;;;;16.15;6.18;;;19.80;55.80;;;;;;4952110;28;87315;-71
2022/03/16 08:17:50;;;;;;;17.05;5.90;;;19.80;56.00;;;;;;4952465;28;88450;-71
2022/03/16 08:20:16;;;;;;;18.73;7.18;;;19.80;56.20;;;;;;4951166;28;87958;-71
2022/03/16 08:22:41;;;;;;;17.25;5.97;;;19.80;55.10;;;;;;4950935;28;88064;-71
2022/03/16 08:25:10;;;;;;;14.75;5.57;;;19.80;56.00;;;;;;4950411;28;89040;-70
2022/03/16 08:27:37;;;;;;;16.05;6.30;;;19.80;56.20;;;;;;4965189;28;91204;-70
2022/03/16 08:30:04;;;;;;;20.02;6.05;;;19.80;56.40;;;;;;4950361;28;87914;-71
2022/03/16 08:32:29;;;;;;;17.73;5.60;;;19.80;56.60;;;;;;4950717;28;87992;-70
2022/03/16 08:34:55;;;;;;;18.20;5.45;;;19.80;56.80;;;;;;4949898;28;87522;-71
2022/03/16 08:37:21;;;;;;;15.52;5.57;;;19.80;56.30;;;;;;4951545;28;87573;-71
2022/03/16 08:39:48;;;;;;;11.30;5.00;;;19.80;54.40;;;;;;4952315;28;87839;-71
2022/03/16 08:42:14;;;;;;;10.43;5.10;;;19.80;55.20;;;;;;4951885;28;86948;-71
2022/03/16 08:44:42;;;;;;;10.95;4.47;;;19.80;55.40;;;;;;4951348;28;87425;-71
2022/03/16 08:47:08;;;;;;;15.20;5.03;;;19.80;55.40;;;;;;4951403;28;90359;-70
2022/03/16 08:49:33;;;;;;;12.73;5.20;;;19.80;55.50;;;;;;4951799;28;88354;-70
2022/03/16 08:51:59;;;;;;;11.63;5.47;;;19.80;55.50;;;;;;4952009;28;87202;-71
2022/03/16 08:54:25;;;;;;;15.88;5.35;;;19.80;54.10;;;;;;4951079;28;87072;-71
2022/03/16 08:56:52;;;;;;;15.57;5.55;;;19.80;55.10;;;;;;4951270;28;88385;-71
2022/03/16 08:59:19;;;;;;;18.60;6.35;;;19.80;55.20;;;;;;4950750;28;88836;-71
2022/03/16 09:01:45;;;;;;;16.02;6.07;;;19.80;55.00;;;;;;4950001;28;87799;-71
2022/03/16 09:04:13;;;;;;;13.50;5.68;;;19.80;55.40;;;;;;4950949;28;86843;-71
2022/03/16 09:06:39;;;;;;;14.52;5.47;;;19.80;55.70;;;;;;4951815;28;87885;-71
2022/03/16 09:09:05;;;;;;;13.13;5.72;;;19.80;55.70;;;;;;4951008;28;87868;-70
2022/03/16 09:11:32;;;;;;;12.10;5.05;;;19.80;55.70;;;;;;4951948;28;88287;-70
2022/03/16 09:13:57;;;;;;;13.82;5.35;;;19.80;54.10;;;;;;4951405;28;87993;-71
2022/03/16 09:16:23;;;;;;;11.35;4.97;;;19.80;53.50;;;;;;4950390;28;88096;-71
2022/03/16 09:18:52;;;;;;;12.18;5.57;;;19.90;55.10;;;;;;4957031;28;88260;-71
2022/03/16 09:21:18;;;;;;;12.48;4.97;;;19.90;54.90;;;;;;4959750;28;87691;-70
2022/03/16 09:23:44;;;;;;;8.38;4.32;;;19.90;55.40;;;;;;4952177;28;87390;-71
2022/03/16 09:26:09;;;;;;;10.52;4.38;;;19.90;55.30;;;;;;4950245;28;87996;-70
2022/03/16 09:28:35;;;;;;;13.13;5.13;;;19.90;55.60;;;;;;4950176;28;87407;-71
2022/03/16 09:31:00;;;;;;;15.13;6.40;;;20.00;54.70;;;;;;4951001;28;87169;-71
2022/03/16 09:33:30;;;;;;;17.60;7.32;;;20.00;54.30;;;;;;4950592;28;87728;-71
2022/03/16 09:35:56;;;;;;;25.50;9.43;;;20.00;53.80;;;;;;4949772;28;89046;-71
2022/03/16 09:38:21;;;;;;;32.22;12.45;;;20.00;54.30;;;;;;4949677;28;88336;-71
2022/03/16 09:40:52;;;;;;;32.22;14.48;;;20.00;54.50;;;;;;4949931;28;88003;-71
2022/03/16 09:43:19;;;;;;;39.08;15.98;;;20.00;54.20;;;;;;4949637;28;87909;-71
2022/03/16 09:45:56;;;;;;;37.33;16.00;;;20.00;54.50;;;;;;4949745;28;88058;-71
2022/03/16 09:48:25;;;;;;;26.40;12.57;;;20.00;55.30;;;;;;4950058;28;87881;-72
2022/03/16 09:50:53;;;;;;;34.80;14.70;;;20.00;54.80;;;;;;4950010;28;86994;-71
2022/03/16 09:53:20;;;;;;;51.15;16.23;;;20.10;55.40;;;;;;4948526;28;88131;-71
2022/03/16 09:55:46;;;;;;;36.88;15.13;;;20.00;55.30;;;;;;4949262;28;88156;-71
2022/03/16 09:58:12;;;;;;;38.60;14.65;;;20.00;55.70;;;;;;4947631;28;87842;-72
2022/03/16 10:00:38;;;;;;;38.22;14.93;;;20.00;56.20;;;;;;4949376;28;88643;-71
2022/03/16 10:03:04;;;;;;;37.63;15.23;;;20.00;56.50;;;;;;4949985;28;87447;-71
2022/03/16 10:05:30;;;;;;;32.05;13.82;;;20.00;56.60;;;;;;4948451;28;87618;-71
2022/03/16 10:08:02;;;;;;;30.90;14.68;;;20.00;56.70;;;;;;4964213;28;90289;-71
2022/03/16 10:13:18;;;;;;;31.42;13.10;;;20.00;56.80;;;;;;4949080;28;87599;-71
2022/03/16 10:15:44;;;;;;;26.75;13.38;;;20.00;56.90;;;;;;4949447;28;88128;-71
2022/03/16 10:18:10;;;;;;;32.03;13.98;;;20.00;56.80;;;;;;4949355;28;87780;-71
2022/03/16 10:20:39;;;;;;;33.72;14.15;;;20.00;56.90;;;;;;4949583;28;87924;-71
2022/03/16 10:23:05;;;;;;;;;;;20.00;57.00;;;;;;4950430;28;87653;-72
2022/03/16 10:25:43;;;;;;;30.35;13.30;;;20.00;57.10;;;;;;4949868;28;87884;-71
2022/03/16 10:28:11;;;;;;;27.00;13.02;;;20.00;57.00;;;;;;4948536;28;88784;-71
2022/03/16 10:30:52;;;;;;;24.45;13.05;;;20.00;57.00;;;;;;4949663;28;88040;-71
2022/03/16 10:33:19;;;;;;;28.58;12.50;;;20.00;57.00;;;;;;4949611;28;88097;-71
2022/03/16 10:36:04;;;;;;;26.58;12.00;;;20.00;56.90;;;;;;4948919;28;89192;-71
2022/03/16 10:38:40;;;;;;;34.20;12.75;;;20.00;57.10;;;;;;4947842;28;89824;-71
2022/03/16 10:47:01;;;;;;;23.42;11.57;;;20.00;57.20;;;;;;4948863;28;87914;-71
2022/03/16 10:49:34;;;;;;;22.45;10.93;;;20.00;57.20;;;;;;4948371;28;88096;-71
2022/03/16 10:52:06;;;;;;;25.38;11.93;;;20.00;57.00;;;;;;4947712;28;88385;-71
2022/03/16 10:54:34;;;;;;;29.20;12.63;;;20.00;57.20;;;;;;4948401;28;87155;-71
2022/03/16 10:57:01;;;;;;;27.42;12.05;;;20.00;57.10;;;;;;4947689;28;87609;-71
2022/03/16 10:59:30;;;;;;;26.08;11.25;;;20.00;57.10;;;;;;4948158;28;88183;-71
2022/03/16 11:02:02;;;;;;;25.65;11.70;;;20.00;57.10;;;;;;4949056;28;87582;-71
2022/03/16 11:04:38;;;;;;;24.75;11.68;;;20.00;57.00;;;;;;4948386;28;87789;-71
2022/03/16 11:07:05;;;;;;;24.10;11.55;;;20.00;57.00;;;;;;4948951;28;88114;-71
2022/03/16 11:09:32;;;;;;;20.23;10.25;;;20.00;56.90;;;;;;4949005;28;87852;-71
2022/03/16 11:14:44;;;;;;;24.88;10.15;;;20.00;56.90;;;;;;4949100;28;88260;-71
2022/03/16 11:17:11;;;;;;;23.15;11.40;;;20.00;57.50;;;;;;4950451;28;88430;-71
2022/03/16 11:19:37;;;;;;;25.10;10.45;;;20.00;56.90;;;;;;4951393;28;88249;-71
2022/03/16 11:22:15;;;;;;;21.75;10.82;;;20.00;56.90;;;;;;4950010;28;87141;-71
2022/03/16 11:24:47;;;;;;;21.67;10.55;;;20.00;56.90;;;;;;4951714;28;88098;-71
2022/03/16 11:27:34;;;;;;;23.67;9.55;;;20.00;56.80;;;;;;4949709;28;87972;-71
2022/03/16 11:30:29;;;;;;;12.38;5.63;;;20.00;56.80;;;;;;4960554;28;89160;-71
2022/03/16 11:33:00;;;;;;;17.95;7.70;;;20.00;52.20;;;;;;4946957;28;87901;-71
2022/03/16 11:35:33;;;;;;;29.92;9.88;;;20.10;54.40;;;;;;4948515;28;87369;-70
2022/03/16 11:38:09;;;;;;;26.13;8.70;;;20.10;56.10;;;;;;4949972;28;88244;-70
2022/03/16 11:40:37;;;;;;;19.27;8.82;;;20.10;56.30;;;;;;4950068;28;87952;-69
2022/03/16 11:43:08;;;;;;;22.20;9.07;;;20.20;56.60;;;;;;4950152;28;88509;-70
2022/03/16 11:45:51;;;;;;;20.52;9.25;;;20.20;57.10;;;;;;4949416;28;88487;-70
2022/03/16 11:48:31;;;;;;;28.60;8.05;;;20.20;57.60;;;;;;4948660;28;88536;-70
2022/03/16 11:51:09;;;;;;;25.25;8.13;;;20.30;58.30;;;;;;4947898;28;87853;-71
2022/03/16 11:56:23;;;;;;;20.60;7.78;;;20.40;58.50;;;;;;4949661;28;87576;-70
2022/03/16 11:59:02;;;;;;;20.55;7.60;;;20.50;59.00;;;;;;4949999;28;87914;-70
2022/03/16 12:01:45;;;;;;;20.02;8.10;;;20.50;59.00;;;;;;4950749;28;87270;-70
2022/03/16 12:04:15;;;;;;;19.65;8.35;;;20.50;59.50;;;;;;4949437;28;87451;-70
2022/03/16 12:07:00;;;;;;;17.58;6.80;;;20.50;59.50;;;;;;4947851;28;91233;-70
2022/03/16 12:09:38;;;;;;;18.65;7.47;;;20.50;59.50;;;;;;4952051;28;89154;-70
2022/03/16 12:15:12;;;;;;;18.08;7.45;;;20.50;59.60;;;;;;4952092;28;87315;-71
2022/03/16 12:17:39;;;;;;;14.57;7.20;;;20.50;59.50;;;;;;4950854;28;88065;-71
2022/03/16 12:20:12;;;;;;;17.88;7.85;;;20.50;59.70;;;;;;4950104;28;88123;-72
2022/03/16 12:22:46;;;;;;;19.25;6.53;;;20.50;58.70;;;;;;4949252;28;91067;-71
2022/03/16 12:25:47;;;;;;;26.20;6.93;;;20.50;59.30;;;;;;4949950;28;87311;-71
2022/03/16 12:31:18;;;;;;;25.48;6.53;;;20.50;59.30;;;;;;4949547;28;87321;-72
2022/03/16 12:33:52;;;;;;;27.25;6.72;;;20.50;59.50;;;;;;4934679;28;90461;-71
2022/03/16 12:36:23;;;;;;;27.23;7.00;;;20.50;59.80;;;;;;4932304;28;89348;-71
2022/03/16 12:38:51;;;;;;;22.63;7.53;;;20.60;59.80;;;;;;4949582;28;88132;-71
2022/03/16 12:44:11;;;;;;;26.58;7.53;;;20.60;60.80;;;;;;4949242;28;86993;-71
2022/03/16 12:47:04;;;;;;;26.77;7.75;;;20.60;61.20;;;;;;4964807;28;87765;-72
2022/03/16 12:49:32;;;;;;;23.60;6.57;;;20.60;61.10;;;;;;4948223;28;88109;-71
2022/03/16 12:52:00;;;;;;;24.27;6.90;;;20.60;61.10;;;;;;4949990;28;87541;-71
2022/03/16 12:54:26;;;;;;;22.52;6.15;;;20.60;61.30;;;;;;4949927;28;87746;-71
2022/03/16 12:56:55;;;;;;;24.67;7.13;;;20.60;61.50;;;;;;4948281;28;87010;-71
2022/03/16 12:59:34;;;;;;;21.27;6.25;;;20.70;61.90;;;;;;4946546;28;87258;-71
2022/03/16 13:02:03;;;;;;;22.85;6.95;;;20.70;62.00;;;;;;4947729;28;90114;-73
2022/03/16 13:04:29;;;;;;;31.57;6.47;;;20.70;62.40;;;;;;4948259;28;89008;-74